sensor_id;sensor_type;location;lat;lon;timestamp;P1;durP1;ratioP1;P2;durP2;ratioP2
20251;SDS011;10284;58.364;15.550;2024-03-23T00:55:33;20.35;;;2.85;;
20251;SDS011;10284;58.364;15.550;2024-03-23T00:57:59;12.05;;;2.15;;
20251;SDS011;10284;58.364;15.550;2024-03-23T01:00:24;16.98;;;2.75;;
20251;SDS011;10284;58.364;15.550;2024-03-23T01:02:49;7.55;;;2.13;;
20251;SDS011;10284;58.364;15.550;2024-03-23T01:05:15;23.15;;;3.17;;
20251;SDS011;10284;58.364;15.550;2024-03-23T01:07:40;15.40;;;2.60;;
20251;SDS011;10284;58.364;15.550;2024-03-23T01:10:05;21.88;;;2.53;;
20251;SDS011;10284;58.364;15.550;2024-03-23T01:12:31;20.77;;;2.70;;
20251;SDS011;10284;58.364;15.550;2024-03-23T01:14:56;21.08;;;3.53;;
20251;SDS011;10284;58.364;15.550;2024-03-23T01:17:22;13.15;;;2.42;;
20251;SDS011;10284;58.364;15.550;2024-03-23T01:19:47;15.15;;;2.95;;
20251;SDS011;10284;58.364;15.550;2024-03-23T01:22:12;15.48;;;3.20;;
20251;SDS011;10284;58.364;15.550;2024-03-23T01:24:38;19.40;;;3.20;;
20251;SDS011;10284;58.364;15.550;2024-03-23T01:27:03;17.02;;;2.83;;
20251;SDS011;10284;58.364;15.550;2024-03-23T01:29:29;18.90;;;3.15;;
20251;SDS011;10284;58.364;15.550;2024-03-23T01:31:54;20.83;;;2.90;;
20251;SDS011;10284;58.364;15.550;2024-03-23T01:34:20;16.58;;;2.70;;
20251;SDS011;10284;58.364;15.550;2024-03-23T01:36:46;24.80;;;2.90;;
20251;SDS011;10284;58.364;15.550;2024-03-23T01:39:11;14.27;;;2.78;;
20251;SDS011;10284;58.364;15.550;2024-03-23T01:41:37;17.40;;;2.88;;
20251;SDS011;10284;58.364;15.550;2024-03-23T01:44:05;12.38;;;2.67;;
20251;SDS011;10284;58.364;15.550;2024-03-23T01:46:34;22.98;;;3.38;;
20251;SDS011;10284;58.364;15.550;2024-03-23T01:49:01;15.93;;;2.63;;
20251;SDS011;10284;58.364;15.550;2024-03-23T01:51:27;23.05;;;2.90;;
20251;SDS011;10284;58.364;15.550;2024-03-23T01:53:53;19.45;;;3.22;;
20251;SDS011;10284;58.364;15.550;2024-03-23T01:56:19;18.00;;;2.70;;
20251;SDS011;10284;58.364;15.550;2024-03-23T01:58:45;22.10;;;3.00;;
20251;SDS011;10284;58.364;15.550;2024-03-23T02:01:11;14.05;;;2.60;;
20251;SDS011;10284;58.364;15.550;2024-03-23T02:03:36;18.30;;;2.70;;
20251;SDS011;10284;58.364;15.550;2024-03-23T02:06:02;18.00;;;3.50;;
20251;SDS011;10284;58.364;15.550;2024-03-23T02:08:27;17.40;;;3.15;;
20251;SDS011;10284;58.364;15.550;2024-03-23T02:10:54;17.92;;;2.92;;
20251;SDS011;10284;58.364;15.550;2024-03-23T02:13:19;19.00;;;2.67;;
20251;SDS011;10284;58.364;15.550;2024-03-23T02:15:44;31.10;;;2.95;;
20251;SDS011;10284;58.364;15.550;2024-03-23T02:18:10;19.25;;;3.08;;
20251;SDS011;10284;58.364;15.550;2024-03-23T02:20:36;21.08;;;2.88;;
20251;SDS011;10284;58.364;15.550;2024-03-23T02:23:02;19.77;;;2.72;;
20251;SDS011;10284;58.364;15.550;2024-03-23T02:25:27;16.52;;;3.05;;
20251;SDS011;10284;58.364;15.550;2024-03-23T02:27:53;20.58;;;3.10;;
20251;SDS011;10284;58.364;15.550;2024-03-23T02:30:19;22.88;;;3.53;;
20251;SDS011;10284;58.364;15.550;2024-03-23T02:32:45;19.25;;;3.03;;
20251;SDS011;10284;58.364;15.550;2024-03-23T02:35:11;18.48;;;3.13;;
20251;SDS011;10284;58.364;15.550;2024-03-23T02:37:36;17.05;;;2.63;;
20251;SDS011;10284;58.364;15.550;2024-03-23T02:40:02;21.20;;;2.92;;
20251;SDS011;10284;58.364;15.550;2024-03-23T02:42:27;16.30;;;2.80;;
20251;SDS011;10284;58.364;15.550;2024-03-23T02:44:53;21.73;;;2.80;;
20251;SDS011;10284;58.364;15.550;2024-03-23T02:47:19;25.35;;;3.17;;
20251;SDS011;10284;58.364;15.550;2024-03-23T02:49:44;18.88;;;3.28;;
20251;SDS011;10284;58.364;15.550;2024-03-23T02:52:10;16.48;;;2.85;;
20251;SDS011;10284;58.364;15.550;2024-03-23T02:54:35;17.02;;;3.20;;
20251;SDS011;10284;58.364;15.550;2024-03-23T02:57:01;20.55;;;3.75;;
20251;SDS011;10284;58.364;15.550;2024-03-23T02:59:26;15.98;;;3.40;;
20251;SDS011;10284;58.364;15.550;2024-03-23T03:01:51;19.55;;;3.38;;
20251;SDS011;10284;58.364;15.550;2024-03-23T03:04:17;23.40;;;3.03;;
20251;SDS011;10284;58.364;15.550;2024-03-23T03:06:43;24.17;;;3.50;;
20251;SDS011;10284;58.364;15.550;2024-03-23T03:09:11;28.85;;;3.78;;
20251;SDS011;10284;58.364;15.550;2024-03-23T03:11:37;19.13;;;3.30;;
20251;SDS011;10284;58.364;15.550;2024-03-23T03:14:02;20.92;;;3.50;;
20251;SDS011;10284;58.364;15.550;2024-03-23T03:16:28;24.40;;;4.03;;
20251;SDS011;10284;58.364;15.550;2024-03-23T03:18:53;18.48;;;3.55;;
20251;SDS011;10284;58.364;15.550;2024-03-23T03:21:19;23.13;;;3.90;;
20251;SDS011;10284;58.364;15.550;2024-03-23T03:23:44;24.27;;;3.83;;
20251;SDS011;10284;58.364;15.550;2024-03-23T03:26:10;27.42;;;3.60;;
20251;SDS011;10284;58.364;15.550;2024-03-23T03:28:35;16.40;;;3.72;;
20251;SDS011;10284;58.364;15.550;2024-03-23T03:31:01;24.48;;;3.30;;
20251;SDS011;10284;58.364;15.550;2024-03-23T03:33:26;19.40;;;3.75;;
20251;SDS011;10284;58.364;15.550;2024-03-23T03:35:52;19.10;;;3.40;;
20251;SDS011;10284;58.364;15.550;2024-03-23T03:38:18;25.63;;;3.80;;
20251;SDS011;10284;58.364;15.550;2024-03-23T03:40:44;18.02;;;3.67;;
20251;SDS011;10284;58.364;15.550;2024-03-23T03:43:09;20.15;;;3.20;;
20251;SDS011;10284;58.364;15.550;2024-03-23T03:45:34;26.00;;;3.78;;
20251;SDS011;10284;58.364;15.550;2024-03-23T03:48:00;20.02;;;3.75;;
20251;SDS011;10284;58.364;15.550;2024-03-23T03:50:25;16.95;;;3.42;;
20251;SDS011;10284;58.364;15.550;2024-03-23T03:52:50;18.63;;;3.35;;
20251;SDS011;10284;58.364;15.550;2024-03-23T03:55:16;21.00;;;4.03;;
20251;SDS011;10284;58.364;15.550;2024-03-23T03:57:42;23.17;;;4.00;;
20251;SDS011;10284;58.364;15.550;2024-03-23T04:00:07;21.95;;;3.53;;
20251;SDS011;10284;58.364;15.550;2024-03-23T04:02:39;17.40;;;3.58;;
20251;SDS011;10284;58.364;15.550;2024-03-23T04:05:04;23.10;;;3.85;;
20251;SDS011;10284;58.364;15.550;2024-03-23T04:07:30;16.80;;;3.85;;
20251;SDS011;10284;58.364;15.550;2024-03-23T04:09:56;19.90;;;3.70;;
20251;SDS011;10284;58.364;15.550;2024-03-23T04:12:23;22.05;;;3.50;;
20251;SDS011;10284;58.364;15.550;2024-03-23T04:14:48;17.92;;;3.17;;
20251;SDS011;10284;58.364;15.550;2024-03-23T04:17:14;16.95;;;2.95;;
20251;SDS011;10284;58.364;15.550;2024-03-23T04:19:39;17.13;;;3.33;;
20251;SDS011;10284;58.364;15.550;2024-03-23T04:22:04;23.38;;;3.70;;
20251;SDS011;10284;58.364;15.550;2024-03-23T04:24:30;17.42;;;3.85;;
20251;SDS011;10284;58.364;15.550;2024-03-23T04:26:55;20.90;;;3.70;;
20251;SDS011;10284;58.364;15.550;2024-03-23T04:29:21;15.00;;;3.00;;
20251;SDS011;10284;58.364;15.550;2024-03-23T04:31:46;23.77;;;3.70;;
20251;SDS011;10284;58.364;15.550;2024-03-23T04:34:12;20.60;;;3.75;;
20251;SDS011;10284;58.364;15.550;2024-03-23T04:36:38;21.80;;;3.20;;
20251;SDS011;10284;58.364;15.550;2024-03-23T04:39:03;20.52;;;3.78;;
20251;SDS011;10284;58.364;15.550;2024-03-23T04:41:28;13.75;;;2.78;;
20251;SDS011;10284;58.364;15.550;2024-03-23T04:43:54;18.88;;;3.30;;
20251;SDS011;10284;58.364;15.550;2024-03-23T04:46:20;20.27;;;3.28;;
20251;SDS011;10284;58.364;15.550;2024-03-23T04:48:46;15.80;;;3.08;;
20251;SDS011;10284;58.364;15.550;2024-03-23T04:51:11;21.17;;;3.00;;
20251;SDS011;10284;58.364;15.550;2024-03-23T04:53:46;21.60;;;3.97;;
20251;SDS011;10284;58.364;15.550;2024-03-23T04:56:11;16.73;;;3.20;;
20251;SDS011;10284;58.364;15.550;2024-03-23T04:58:37;22.90;;;3.33;;
20251;SDS011;10284;58.364;15.550;2024-03-23T05:01:02;23.58;;;3.10;;
20251;SDS011;10284;58.364;15.550;2024-03-23T05:03:27;15.02;;;3.22;;
20251;SDS011;10284;58.364;15.550;2024-03-23T05:05:53;18.75;;;3.30;;
20251;SDS011;10284;58.364;15.550;2024-03-23T05:08:19;15.50;;;3.00;;
20251;SDS011;10284;58.364;15.550;2024-03-23T05:10:44;23.48;;;3.88;;
20251;SDS011;10284;58.364;15.550;2024-03-23T05:13:10;19.35;;;3.10;;
20251;SDS011;10284;58.364;15.550;2024-03-23T05:15:36;20.90;;;3.47;;
20251;SDS011;10284;58.364;15.550;2024-03-23T05:18:01;17.38;;;3.42;;
20251;SDS011;10284;58.364;15.550;2024-03-23T05:20:27;22.73;;;3.25;;
20251;SDS011;10284;58.364;15.550;2024-03-23T05:22:52;17.85;;;2.97;;
20251;SDS011;10284;58.364;15.550;2024-03-23T05:25:19;17.15;;;3.00;;
20251;SDS011;10284;58.364;15.550;2024-03-23T05:27:45;17.42;;;3.03;;
20251;SDS011;10284;58.364;15.550;2024-03-23T05:30:10;24.35;;;3.65;;
20251;SDS011;10284;58.364;15.550;2024-03-23T05:32:36;18.30;;;3.22;;
20251;SDS011;10284;58.364;15.550;2024-03-23T05:35:01;20.55;;;2.90;;
20251;SDS011;10284;58.364;15.550;2024-03-23T05:37:26;17.15;;;3.70;;
20251;SDS011;10284;58.364;15.550;2024-03-23T05:39:52;18.92;;;3.28;;
20251;SDS011;10284;58.364;15.550;2024-03-23T05:42:17;26.88;;;3.63;;
20251;SDS011;10284;58.364;15.550;2024-03-23T05:44:46;26.00;;;3.70;;
20251;SDS011;10284;58.364;15.550;2024-03-23T05:47:12;13.27;;;2.28;;
20251;SDS011;10284;58.364;15.550;2024-03-23T05:49:41;17.80;;;3.47;;
20251;SDS011;10284;58.364;15.550;2024-03-23T05:52:07;18.92;;;2.85;;
20251;SDS011;10284;58.364;15.550;2024-03-23T05:54:33;21.00;;;2.95;;
20251;SDS011;10284;58.364;15.550;2024-03-23T05:56:59;13.93;;;3.03;;
20251;SDS011;10284;58.364;15.550;2024-03-23T05:59:24;17.90;;;2.88;;
20251;SDS011;10284;58.364;15.550;2024-03-23T06:01:50;22.23;;;4.00;;
20251;SDS011;10284;58.364;15.550;2024-03-23T06:04:15;17.40;;;2.90;;
20251;SDS011;10284;58.364;15.550;2024-03-23T06:06:41;17.75;;;2.95;;
20251;SDS011;10284;58.364;15.550;2024-03-23T06:09:06;19.27;;;2.70;;
20251;SDS011;10284;58.364;15.550;2024-03-23T06:11:32;14.75;;;2.80;;
20251;SDS011;10284;58.364;15.550;2024-03-23T06:13:57;18.08;;;3.25;;
20251;SDS011;10284;58.364;15.550;2024-03-23T06:16:23;12.57;;;2.83;;
20251;SDS011;10284;58.364;15.550;2024-03-23T06:18:49;16.15;;;2.90;;
20251;SDS011;10284;58.364;15.550;2024-03-23T06:21:18;20.52;;;3.13;;
20251;SDS011;10284;58.364;15.550;2024-03-23T06:23:44;24.88;;;3.08;;
20251;SDS011;10284;58.364;15.550;2024-03-23T06:26:16;16.98;;;3.20;;
20251;SDS011;10284;58.364;15.550;2024-03-23T06:28:42;19.30;;;3.58;;
20251;SDS011;10284;58.364;15.550;2024-03-23T06:31:10;23.10;;;2.95;;
20251;SDS011;10284;58.364;15.550;2024-03-23T06:33:36;14.65;;;3.40;;
20251;SDS011;10284;58.364;15.550;2024-03-23T06:36:02;16.80;;;3.22;;
20251;SDS011;10284;58.364;15.550;2024-03-23T06:38:28;19.88;;;3.10;;
20251;SDS011;10284;58.364;15.550;2024-03-23T06:40:53;16.98;;;2.95;;
20251;SDS011;10284;58.364;15.550;2024-03-23T06:43:19;21.02;;;3.03;;
20251;SDS011;10284;58.364;15.550;2024-03-23T06:45:44;20.05;;;3.70;;
20251;SDS011;10284;58.364;15.550;2024-03-23T06:48:17;18.83;;;2.78;;
20251;SDS011;10284;58.364;15.550;2024-03-23T06:50:43;15.02;;;2.22;;
20251;SDS011;10284;58.364;15.550;2024-03-23T06:53:08;17.85;;;3.05;;
20251;SDS011;10284;58.364;15.550;2024-03-23T06:55:34;24.55;;;3.60;;
20251;SDS011;10284;58.364;15.550;2024-03-23T06:57:59;15.05;;;2.58;;
20251;SDS011;10284;58.364;15.550;2024-03-23T07:00:25;18.55;;;3.45;;
20251;SDS011;10284;58.364;15.550;2024-03-23T07:02:50;22.30;;;2.97;;
20251;SDS011;10284;58.364;15.550;2024-03-23T07:05:15;18.98;;;3.13;;
20251;SDS011;10284;58.364;15.550;2024-03-23T07:07:41;17.02;;;3.47;;
20251;SDS011;10284;58.364;15.550;2024-03-23T07:10:06;23.33;;;3.20;;
20251;SDS011;10284;58.364;15.550;2024-03-23T07:12:32;18.63;;;3.22;;
20251;SDS011;10284;58.364;15.550;2024-03-23T07:14:57;19.77;;;3.33;;
20251;SDS011;10284;58.364;15.550;2024-03-23T07:17:23;18.05;;;3.00;;
20251;SDS011;10284;58.364;15.550;2024-03-23T07:19:48;17.17;;;2.95;;
20251;SDS011;10284;58.364;15.550;2024-03-23T07:22:13;14.95;;;2.70;;
20251;SDS011;10284;58.364;15.550;2024-03-23T07:24:39;16.63;;;2.88;;
20251;SDS011;10284;58.364;15.550;2024-03-23T07:27:05;15.52;;;2.50;;
20251;SDS011;10284;58.364;15.550;2024-03-23T07:29:30;20.10;;;3.13;;
20251;SDS011;10284;58.364;15.550;2024-03-23T07:31:56;18.27;;;2.90;;
20251;SDS011;10284;58.364;15.550;2024-03-23T07:34:21;17.30;;;2.42;;
20251;SDS011;10284;58.364;15.550;2024-03-23T07:36:47;15.73;;;2.30;;
20251;SDS011;10284;58.364;15.550;2024-03-23T07:39:12;14.93;;;2.60;;
20251;SDS011;10284;58.364;15.550;2024-03-23T07:41:37;13.45;;;2.28;;
20251;SDS011;10284;58.364;15.550;2024-03-23T07:44:03;14.13;;;2.38;;
20251;SDS011;10284;58.364;15.550;2024-03-23T07:46:28;12.88;;;2.58;;
20251;SDS011;10284;58.364;15.550;2024-03-23T07:48:54;16.25;;;2.03;;
20251;SDS011;10284;58.364;15.550;2024-03-23T07:51:22;10.77;;;2.60;;
20251;SDS011;10284;58.364;15.550;2024-03-23T07:53:48;16.13;;;2.53;;
20251;SDS011;10284;58.364;15.550;2024-03-23T07:56:14;14.85;;;2.60;;
20251;SDS011;10284;58.364;15.550;2024-03-23T07:58:40;14.43;;;2.17;;
20251;SDS011;10284;58.364;15.550;2024-03-23T08:01:07;13.60;;;2.38;;
20251;SDS011;10284;58.364;15.550;2024-03-23T08:03:37;15.10;;;2.65;;
20251;SDS011;10284;58.364;15.550;2024-03-23T08:06:09;12.02;;;2.75;;
20251;SDS011;10284;58.364;15.550;2024-03-23T08:08:35;13.07;;;2.10;;
20251;SDS011;10284;58.364;15.550;2024-03-23T08:11:01;16.00;;;2.72;;
20251;SDS011;10284;58.364;15.550;2024-03-23T08:13:26;13.20;;;2.20;;
20251;SDS011;10284;58.364;15.550;2024-03-23T08:15:51;13.48;;;2.60;;
20251;SDS011;10284;58.364;15.550;2024-03-23T08:18:17;15.45;;;2.47;;
20251;SDS011;10284;58.364;15.550;2024-03-23T08:20:42;13.85;;;2.42;;
20251;SDS011;10284;58.364;15.550;2024-03-23T08:23:08;10.27;;;2.55;;
20251;SDS011;10284;58.364;15.550;2024-03-23T08:25:33;10.88;;;2.45;;
20251;SDS011;10284;58.364;15.550;2024-03-23T08:27:59;13.32;;;2.60;;
20251;SDS011;10284;58.364;15.550;2024-03-23T08:30:25;13.43;;;2.97;;
20251;SDS011;10284;58.364;15.550;2024-03-23T08:32:50;10.23;;;1.98;;
20251;SDS011;10284;58.364;15.550;2024-03-23T08:35:16;16.92;;;2.42;;
20251;SDS011;10284;58.364;15.550;2024-03-23T08:37:41;11.73;;;2.38;;
20251;SDS011;10284;58.364;15.550;2024-03-23T08:40:07;13.05;;;2.40;;
20251;SDS011;10284;58.364;15.550;2024-03-23T08:42:33;10.05;;;2.22;;
20251;SDS011;10284;58.364;15.550;2024-03-23T08:44:59;9.93;;;2.58;;
20251;SDS011;10284;58.364;15.550;2024-03-23T08:47:24;9.10;;;2.17;;
20251;SDS011;10284;58.364;15.550;2024-03-23T08:49:49;10.15;;;2.35;;
20251;SDS011;10284;58.364;15.550;2024-03-23T08:52:15;13.50;;;2.70;;
20251;SDS011;10284;58.364;15.550;2024-03-23T08:54:40;15.45;;;2.45;;
20251;SDS011;10284;58.364;15.550;2024-03-23T08:57:05;12.52;;;2.50;;
20251;SDS011;10284;58.364;15.550;2024-03-23T08:59:32;11.07;;;2.20;;
20251;SDS011;10284;58.364;15.550;2024-03-23T09:01:57;12.73;;;2.97;;
20251;SDS011;10284;58.364;15.550;2024-03-23T09:04:23;10.45;;;2.00;;
20251;SDS011;10284;58.364;15.550;2024-03-23T09:06:48;11.35;;;1.98;;
20251;SDS011;10284;58.364;15.550;2024-03-23T09:09:14;9.65;;;2.10;;
20251;SDS011;10284;58.364;15.550;2024-03-23T09:11:40;8.70;;;1.90;;
20251;SDS011;10284;58.364;15.550;2024-03-23T09:14:05;9.13;;;2.50;;
20251;SDS011;10284;58.364;15.550;2024-03-23T09:16:31;14.82;;;2.40;;
20251;SDS011;10284;58.364;15.550;2024-03-23T09:18:56;13.85;;;2.33;;
20251;SDS011;10284;58.364;15.550;2024-03-23T09:21:21;7.82;;;1.52;;
20251;SDS011;10284;58.364;15.550;2024-03-23T09:23:47;9.35;;;1.92;;
20251;SDS011;10284;58.364;15.550;2024-03-23T09:26:12;9.73;;;2.15;;
20251;SDS011;10284;58.364;15.550;2024-03-23T09:28:38;11.90;;;2.08;;
20251;SDS011;10284;58.364;15.550;2024-03-23T09:31:03;12.98;;;2.10;;
20251;SDS011;10284;58.364;15.550;2024-03-23T09:33:29;9.38;;;1.70;;
20251;SDS011;10284;58.364;15.550;2024-03-23T09:35:55;8.23;;;2.08;;
20251;SDS011;10284;58.364;15.550;2024-03-23T09:38:21;8.35;;;2.03;;
20251;SDS011;10284;58.364;15.550;2024-03-23T09:40:48;11.07;;;1.95;;
20251;SDS011;10284;58.364;15.550;2024-03-23T09:43:15;11.65;;;1.83;;
20251;SDS011;10284;58.364;15.550;2024-03-23T09:45:40;14.18;;;2.05;;
20251;SDS011;10284;58.364;15.550;2024-03-23T09:48:09;10.50;;;2.03;;
20251;SDS011;10284;58.364;15.550;2024-03-23T09:50:41;10.05;;;2.10;;
20251;SDS011;10284;58.364;15.550;2024-03-23T09:53:07;8.73;;;1.75;;
20251;SDS011;10284;58.364;15.550;2024-03-23T09:55:33;7.60;;;1.75;;
20251;SDS011;10284;58.364;15.550;2024-03-23T09:58:03;8.60;;;1.60;;
20251;SDS011;10284;58.364;15.550;2024-03-23T10:00:30;9.27;;;1.95;;
20251;SDS011;10284;58.364;15.550;2024-03-23T10:02:56;8.32;;;2.05;;
20251;SDS011;10284;58.364;15.550;2024-03-23T10:05:23;6.45;;;1.70;;
20251;SDS011;10284;58.364;15.550;2024-03-23T10:07:51;16.40;;;2.78;;
20251;SDS011;10284;58.364;15.550;2024-03-23T10:10:17;11.68;;;2.10;;
20251;SDS011;10284;58.364;15.550;2024-03-23T10:12:46;10.82;;;1.88;;
20251;SDS011;10284;58.364;15.550;2024-03-23T10:15:21;11.50;;;2.20;;
20251;SDS011;10284;58.364;15.550;2024-03-23T10:17:48;7.65;;;1.98;;
20251;SDS011;10284;58.364;15.550;2024-03-23T10:20:18;11.50;;;2.10;;
20251;SDS011;10284;58.364;15.550;2024-03-23T10:22:45;7.93;;;1.63;;
20251;SDS011;10284;58.364;15.550;2024-03-23T10:25:11;11.48;;;1.90;;
20251;SDS011;10284;58.364;15.550;2024-03-23T10:27:37;4.72;;;1.52;;
20251;SDS011;10284;58.364;15.550;2024-03-23T10:30:09;8.55;;;1.42;;
20251;SDS011;10284;58.364;15.550;2024-03-23T10:32:35;10.88;;;1.90;;
20251;SDS011;10284;58.364;15.550;2024-03-23T10:35:19;10.75;;;2.05;;
20251;SDS011;10284;58.364;15.550;2024-03-23T10:37:47;13.02;;;1.67;;
20251;SDS011;10284;58.364;15.550;2024-03-23T10:40:14;9.88;;;1.83;;
20251;SDS011;10284;58.364;15.550;2024-03-23T10:42:40;13.15;;;1.90;;
20251;SDS011;10284;58.364;15.550;2024-03-23T10:45:06;8.63;;;2.20;;
20251;SDS011;10284;58.364;15.550;2024-03-23T10:47:33;5.82;;;1.40;;
20251;SDS011;10284;58.364;15.550;2024-03-23T10:49:59;6.68;;;1.50;;
20251;SDS011;10284;58.364;15.550;2024-03-23T10:52:25;8.52;;;1.45;;
20251;SDS011;10284;58.364;15.550;2024-03-23T10:54:51;6.50;;;1.35;;
20251;SDS011;10284;58.364;15.550;2024-03-23T10:57:27;9.50;;;1.60;;
20251;SDS011;10284;58.364;15.550;2024-03-23T10:59:57;9.88;;;1.80;;
20251;SDS011;10284;58.364;15.550;2024-03-23T11:02:23;7.20;;;2.08;;
20251;SDS011;10284;58.364;15.550;2024-03-23T11:04:51;8.00;;;1.77;;
20251;SDS011;10284;58.364;15.550;2024-03-23T11:07:38;11.73;;;1.63;;
20251;SDS011;10284;58.364;15.550;2024-03-23T11:10:04;9.63;;;1.67;;
20251;SDS011;10284;58.364;15.550;2024-03-23T11:12:54;10.27;;;1.75;;
20251;SDS011;10284;58.364;15.550;2024-03-23T11:15:20;10.20;;;1.67;;
20251;SDS011;10284;58.364;15.550;2024-03-23T11:20:46;6.47;;;2.13;;
20251;SDS011;10284;58.364;15.550;2024-03-23T11:23:33;7.10;;;1.55;;
20251;SDS011;10284;58.364;15.550;2024-03-23T11:25:57;11.07;;;1.70;;
20251;SDS011;10284;58.364;15.550;2024-03-23T11:28:22;8.82;;;1.45;;
20251;SDS011;10284;58.364;15.550;2024-03-23T11:30:48;7.43;;;1.92;;
20251;SDS011;10284;58.364;15.550;2024-03-23T11:33:13;6.05;;;1.40;;
20251;SDS011;10284;58.364;15.550;2024-03-23T11:35:39;6.50;;;1.63;;
20251;SDS011;10284;58.364;15.550;2024-03-23T11:38:06;6.70;;;1.63;;
20251;SDS011;10284;58.364;15.550;2024-03-23T11:40:38;5.32;;;1.20;;
20251;SDS011;10284;58.364;15.550;2024-03-23T11:43:05;9.43;;;1.60;;
20251;SDS011;10284;58.364;15.550;2024-03-23T11:48:08;7.90;;;1.50;;
20251;SDS011;10284;58.364;15.550;2024-03-23T11:50:36;8.77;;;1.27;;
20251;SDS011;10284;58.364;15.550;2024-03-23T11:53:06;7.72;;;1.60;;
20251;SDS011;10284;58.364;15.550;2024-03-23T11:55:38;5.65;;;1.10;;
20251;SDS011;10284;58.364;15.550;2024-03-23T11:58:17;7.35;;;1.85;;
20251;SDS011;10284;58.364;15.550;2024-03-23T12:00:55;9.40;;;1.65;;
20251;SDS011;10284;58.364;15.550;2024-03-23T12:03:22;7.05;;;1.40;;
20251;SDS011;10284;58.364;15.550;2024-03-23T12:05:51;9.20;;;1.63;;
20251;SDS011;10284;58.364;15.550;2024-03-23T12:10:48;11.77;;;1.80;;
20251;SDS011;10284;58.364;15.550;2024-03-23T12:13:23;5.68;;;1.42;;
20251;SDS011;10284;58.364;15.550;2024-03-23T12:15:51;7.28;;;1.35;;
20251;SDS011;10284;58.364;15.550;2024-03-23T12:18:17;9.40;;;1.80;;
20251;SDS011;10284;58.364;15.550;2024-03-23T12:20:43;11.07;;;1.85;;
20251;SDS011;10284;58.364;15.550;2024-03-23T12:23:09;8.65;;;1.67;;
20251;SDS011;10284;58.364;15.550;2024-03-23T12:25:36;6.15;;;1.63;;
20251;SDS011;10284;58.364;15.550;2024-03-23T12:28:02;8.90;;;1.80;;
20251;SDS011;10284;58.364;15.550;2024-03-23T12:30:31;9.68;;;1.60;;
20251;SDS011;10284;58.364;15.550;2024-03-23T12:32:56;10.55;;;1.90;;
20251;SDS011;10284;58.364;15.550;2024-03-23T12:35:22;6.05;;;1.17;;
20251;SDS011;10284;58.364;15.550;2024-03-23T12:37:47;8.48;;;1.42;;
20251;SDS011;10284;58.364;15.550;2024-03-23T12:40:12;8.60;;;1.50;;
20251;SDS011;10284;58.364;15.550;2024-03-23T12:42:38;8.50;;;1.38;;
20251;SDS011;10284;58.364;15.550;2024-03-23T12:45:04;6.25;;;1.40;;
20251;SDS011;10284;58.364;15.550;2024-03-23T12:47:30;7.45;;;1.23;;
20251;SDS011;10284;58.364;15.550;2024-03-23T12:49:55;5.65;;;1.38;;
20251;SDS011;10284;58.364;15.550;2024-03-23T12:52:21;5.88;;;1.33;;
20251;SDS011;10284;58.364;15.550;2024-03-23T12:54:49;7.00;;;1.50;;
20251;SDS011;10284;58.364;15.550;2024-03-23T12:57:14;7.80;;;1.77;;
20251;SDS011;10284;58.364;15.550;2024-03-23T12:59:39;5.72;;;1.13;;
20251;SDS011;10284;58.364;15.550;2024-03-23T13:02:05;7.30;;;1.23;;
20251;SDS011;10284;58.364;15.550;2024-03-23T13:04:32;4.53;;;1.20;;
20251;SDS011;10284;58.364;15.550;2024-03-23T13:06:57;9.98;;;1.40;;
20251;SDS011;10284;58.364;15.550;2024-03-23T13:09:22;8.25;;;1.40;;
20251;SDS011;10284;58.364;15.550;2024-03-23T13:11:48;6.60;;;1.05;;
20251;SDS011;10284;58.364;15.550;2024-03-23T13:14:13;4.90;;;1.00;;
20251;SDS011;10284;58.364;15.550;2024-03-23T13:16:41;7.63;;;1.55;;
20251;SDS011;10284;58.364;15.550;2024-03-23T13:19:07;7.00;;;1.30;;
20251;SDS011;10284;58.364;15.550;2024-03-23T13:21:32;5.03;;;1.10;;
20251;SDS011;10284;58.364;15.550;2024-03-23T13:23:57;7.45;;;1.13;;
20251;SDS011;10284;58.364;15.550;2024-03-23T13:26:23;6.28;;;1.38;;
20251;SDS011;10284;58.364;15.550;2024-03-23T13:28:48;7.90;;;1.00;;
20251;SDS011;10284;58.364;15.550;2024-03-23T13:31:13;11.00;;;1.80;;
20251;SDS011;10284;58.364;15.550;2024-03-23T13:33:39;8.10;;;1.50;;
20251;SDS011;10284;58.364;15.550;2024-03-23T13:36:05;9.70;;;1.67;;
20251;SDS011;10284;58.364;15.550;2024-03-23T13:38:30;6.63;;;1.50;;
20251;SDS011;10284;58.364;15.550;2024-03-23T13:40:56;5.22;;;1.33;;
20251;SDS011;10284;58.364;15.550;2024-03-23T13:43:23;10.90;;;2.17;;
20251;SDS011;10284;58.364;15.550;2024-03-23T13:45:53;6.80;;;2.05;;
20251;SDS011;10284;58.364;15.550;2024-03-23T13:48:19;4.88;;;1.35;;
20251;SDS011;10284;58.364;15.550;2024-03-23T13:50:46;9.70;;;1.40;;
20251;SDS011;10284;58.364;15.550;2024-03-23T13:53:13;9.27;;;1.48;;
20251;SDS011;10284;58.364;15.550;2024-03-23T13:55:45;4.28;;;1.40;;
20251;SDS011;10284;58.364;15.550;2024-03-23T13:58:12;6.28;;;1.23;;
20251;SDS011;10284;58.364;15.550;2024-03-23T14:00:37;7.05;;;1.65;;
20251;SDS011;10284;58.364;15.550;2024-03-23T14:03:02;8.13;;;1.45;;
20251;SDS011;10284;58.364;15.550;2024-03-23T14:05:28;10.45;;;1.70;;
20251;SDS011;10284;58.364;15.550;2024-03-23T14:07:53;5.60;;;1.40;;
20251;SDS011;10284;58.364;15.550;2024-03-23T14:10:18;6.35;;;1.88;;
20251;SDS011;10284;58.364;15.550;2024-03-23T14:12:44;8.63;;;1.48;;
20251;SDS011;10284;58.364;15.550;2024-03-23T14:15:09;8.77;;;1.85;;
20251;SDS011;10284;58.364;15.550;2024-03-23T14:17:35;14.23;;;3.47;;
20251;SDS011;10284;58.364;15.550;2024-03-23T14:20:00;5.28;;;1.63;;
20251;SDS011;10284;58.364;15.550;2024-03-23T14:22:26;6.93;;;1.73;;
20251;SDS011;10284;58.364;15.550;2024-03-23T14:24:52;11.88;;;1.67;;
20251;SDS011;10284;58.364;15.550;2024-03-23T14:27:18;7.30;;;1.40;;
20251;SDS011;10284;58.364;15.550;2024-03-23T14:29:45;7.70;;;1.73;;
20251;SDS011;10284;58.364;15.550;2024-03-23T14:32:11;7.65;;;1.38;;
20251;SDS011;10284;58.364;15.550;2024-03-23T14:34:37;5.43;;;1.30;;
20251;SDS011;10284;58.364;15.550;2024-03-23T14:37:02;6.93;;;1.52;;
20251;SDS011;10284;58.364;15.550;2024-03-23T14:39:28;9.40;;;1.58;;
20251;SDS011;10284;58.364;15.550;2024-03-23T14:41:55;9.52;;;1.50;;
20251;SDS011;10284;58.364;15.550;2024-03-23T14:44:21;9.30;;;1.88;;
20251;SDS011;10284;58.364;15.550;2024-03-23T14:46:47;8.77;;;1.20;;
20251;SDS011;10284;58.364;15.550;2024-03-23T14:49:15;6.72;;;1.45;;
20251;SDS011;10284;58.364;15.550;2024-03-23T14:51:43;8.65;;;1.30;;
20251;SDS011;10284;58.364;15.550;2024-03-23T14:54:09;4.47;;;1.27;;
20251;SDS011;10284;58.364;15.550;2024-03-23T14:56:35;8.85;;;2.15;;
20251;SDS011;10284;58.364;15.550;2024-03-23T14:59:00;10.65;;;1.50;;
20251;SDS011;10284;58.364;15.550;2024-03-23T15:01:26;9.15;;;1.60;;
20251;SDS011;10284;58.364;15.550;2024-03-23T15:03:51;9.05;;;1.63;;
20251;SDS011;10284;58.364;15.550;2024-03-23T15:06:18;7.95;;;1.70;;
20251;SDS011;10284;58.364;15.550;2024-03-23T15:08:44;8.20;;;2.03;;
20251;SDS011;10284;58.364;15.550;2024-03-23T15:11:09;6.88;;;1.30;;
20251;SDS011;10284;58.364;15.550;2024-03-23T15:13:35;4.90;;;1.08;;
20251;SDS011;10284;58.364;15.550;2024-03-23T15:16:01;6.38;;;1.15;;
20251;SDS011;10284;58.364;15.550;2024-03-23T15:18:28;6.38;;;1.15;;
20251;SDS011;10284;58.364;15.550;2024-03-23T15:20:55;3.10;;;0.75;;
20251;SDS011;10284;58.364;15.550;2024-03-23T15:23:21;7.95;;;2.60;;